createdAt,value
2018-07-08T00:01:52.529Z,17.74
2018-07-08T00:04:21.655Z,17.71
2018-07-08T00:06:54.747Z,17.65
2018-07-08T00:09:23.722Z,17.64
2018-07-08T00:11:52.916Z,17.45
2018-07-08T00:14:22.048Z,17.57
2018-07-08T00:16:51.177Z,17.58
2018-07-08T00:19:20.303Z,17.56
2018-07-08T00:21:49.452Z,17.55
2018-07-08T00:24:18.605Z,17.60
2018-07-08T00:26:47.750Z,17.61
2018-07-08T00:29:16.947Z,17.29
2018-07-08T00:31:46.069Z,17.31
2018-07-08T00:34:15.267Z,17.21
2018-07-08T00:36:44.406Z,17.20
2018-07-08T00:39:13.573Z,17.05
2018-07-08T00:41:42.710Z,17.06
2018-07-08T00:44:11.869Z,17.05
2018-07-08T00:46:41.003Z,17.12
2018-07-08T00:49:10.139Z,16.84
2018-07-08T00:51:39.392Z,16.84
2018-07-08T00:54:08.521Z,16.80
2018-07-08T00:56:37.705Z,16.71
2018-07-08T00:59:06.809Z,16.86
2018-07-08T01:01:36.019Z,16.85
2018-07-08T01:04:05.105Z,16.88
2018-07-08T01:06:34.265Z,16.88
2018-07-08T01:09:03.310Z,16.79
2018-07-08T01:11:32.440Z,16.92
2018-07-08T01:14:01.552Z,16.83
2018-07-08T01:16:30.866Z,16.87
2018-07-08T01:19:00.006Z,16.59
2018-07-08T01:21:29.132Z,16.54
2018-07-08T01:23:58.258Z,16.38
2018-07-08T01:26:28.066Z,16.30
2018-07-08T01:28:57.188Z,16.33
2018-07-08T01:31:26.316Z,16.30
2018-07-08T01:33:55.464Z,16.28
2018-07-08T01:36:24.580Z,16.26
2018-07-08T01:38:53.700Z,16.05
2018-07-08T01:41:22.829Z,15.98
2018-07-08T01:43:51.955Z,15.86
2018-07-08T01:46:21.093Z,15.82
2018-07-08T01:48:50.216Z,15.74
2018-07-08T01:51:19.135Z,15.70
2018-07-08T01:53:48.306Z,15.63
2018-07-08T01:56:17.418Z,15.47
2018-07-08T01:58:46.580Z,15.30
2018-07-08T02:01:15.674Z,15.27
2018-07-08T02:03:44.825Z,15.28
2018-07-08T02:06:13.961Z,15.24
2018-07-08T02:08:43.086Z,15.19
2018-07-08T02:11:12.213Z,15.15
2018-07-08T02:13:41.347Z,15.11
2018-07-08T02:16:10.476Z,14.99
2018-07-08T02:18:39.645Z,14.97
2018-07-08T02:21:08.761Z,14.86
2018-07-08T02:23:37.886Z,14.87
2018-07-08T02:26:07.307Z,14.83
2018-07-08T02:28:36.436Z,14.93
2018-07-08T02:31:05.561Z,14.94
2018-07-08T02:33:34.708Z,14.95
2018-07-08T02:36:03.936Z,14.87
2018-07-08T02:38:33.069Z,14.87
2018-07-08T02:41:02.192Z,14.66
2018-07-08T02:43:31.323Z,14.59
2018-07-08T02:46:00.913Z,14.62
2018-07-08T02:48:30.035Z,14.54
2018-07-08T02:50:59.167Z,14.49
2018-07-08T02:53:28.368Z,14.50
2018-07-08T02:55:57.485Z,14.50
2018-07-08T02:58:26.636Z,14.48
2018-07-08T03:00:55.757Z,14.45
2018-07-08T03:03:24.887Z,14.43
2018-07-08T03:05:54.028Z,14.42
2018-07-08T03:08:23.156Z,14.62
2018-07-08T03:10:52.275Z,14.89
2018-07-08T03:13:21.407Z,15.09
2018-07-08T03:15:50.540Z,15.25
2018-07-08T03:18:19.705Z,15.31
2018-07-08T03:20:48.983Z,15.28
2018-07-08T03:23:18.116Z,15.14
2018-07-08T03:25:47.245Z,15.09
2018-07-08T03:28:16.360Z,15.19
2018-07-08T03:30:45.482Z,15.25
2018-07-08T03:33:14.614Z,15.23
2018-07-08T03:35:43.745Z,15.20
2018-07-08T03:38:12.855Z,15.38
2018-07-08T03:40:41.984Z,15.43
2018-07-08T03:43:11.111Z,15.34
2018-07-08T03:45:40.447Z,15.30
2018-07-08T03:48:09.396Z,15.22
2018-07-08T03:50:38.535Z,15.18
2018-07-08T03:53:07.832Z,15.13
2018-07-08T03:55:36.735Z,15.10
2018-07-08T03:58:06.027Z,15.24
2018-07-08T04:00:34.931Z,15.15
2018-07-08T04:03:04.072Z,15.20
2018-07-08T04:05:33.264Z,15.18
2018-07-08T04:08:02.395Z,15.22
2018-07-08T04:10:31.519Z,15.14
2018-07-08T04:13:01.221Z,15.31
2018-07-08T04:15:30.502Z,15.31
2018-07-08T04:18:05.243Z,15.24
2018-07-08T04:20:34.532Z,15.32
2018-07-08T04:23:03.662Z,15.32
2018-07-08T04:25:33.334Z,15.26
2018-07-08T04:28:02.848Z,15.32
2018-07-08T04:30:32.443Z,15.39
2018-07-08T04:33:01.857Z,15.34
2018-07-08T04:35:30.979Z,15.37
2018-07-08T04:38:00.371Z,15.41
2018-07-08T04:40:29.648Z,15.38
2018-07-08T04:42:58.797Z,15.48
2018-07-08T04:45:27.911Z,15.53
2018-07-08T04:47:57.040Z,15.55
2018-07-08T04:50:25.940Z,15.55
2018-07-08T04:52:55.397Z,15.47
2018-07-08T04:55:24.525Z,15.50
2018-07-08T04:57:53.651Z,15.60
2018-07-08T05:00:22.781Z,15.59
2018-07-08T05:02:51.925Z,15.71
2018-07-08T05:05:20.830Z,15.72
2018-07-08T05:07:49.947Z,15.80
2018-07-08T05:10:19.120Z,15.85
2018-07-08T05:12:48.219Z,16.13
2018-07-08T05:15:17.357Z,16.27
2018-07-08T05:17:46.492Z,16.13
2018-07-08T05:20:15.412Z,16.21
2018-07-08T05:22:44.569Z,16.23
2018-07-08T05:25:13.717Z,16.32
2018-07-08T05:27:42.844Z,16.36
2018-07-08T05:30:11.991Z,16.46
2018-07-08T05:32:41.124Z,16.46
2018-07-08T05:35:10.257Z,16.55
2018-07-08T05:37:39.439Z,16.65
2018-07-08T05:40:08.565Z,16.64
2018-07-08T05:42:37.706Z,16.84
2018-07-08T05:45:06.860Z,16.79
2018-07-08T05:47:36.022Z,16.82
2018-07-08T05:50:06.376Z,16.84
2018-07-08T05:52:35.284Z,16.83
2018-07-08T05:55:04.433Z,16.99
2018-07-08T05:57:33.548Z,17.09
2018-07-08T06:00:02.686Z,17.12
2018-07-08T06:02:31.816Z,17.10
2018-07-08T06:05:00.940Z,17.18
2018-07-08T06:07:30.092Z,17.18
2018-07-08T06:09:59.227Z,17.29
2018-07-08T06:12:28.152Z,17.38
2018-07-08T06:14:57.266Z,17.44
2018-07-08T06:17:26.407Z,17.45
2018-07-08T06:19:55.342Z,17.39
2018-07-08T06:22:24.485Z,17.37
2018-07-08T06:24:53.629Z,17.56
2018-07-08T06:27:22.761Z,17.65
2018-07-08T06:29:51.874Z,17.72
2018-07-08T06:32:21.030Z,17.95
2018-07-08T06:34:50.156Z,17.94
2018-07-08T06:37:19.280Z,18.21
2018-07-08T06:39:48.188Z,18.43
2018-07-08T06:42:17.329Z,18.41
2018-07-08T06:44:46.452Z,18.68
2018-07-08T06:47:15.575Z,18.55
2018-07-08T06:49:44.696Z,18.45
2018-07-08T06:52:13.833Z,18.61
2018-07-08T06:54:42.949Z,18.66
2018-07-08T06:57:12.080Z,18.82
2018-07-08T06:59:41.200Z,18.96
2018-07-08T07:02:10.649Z,18.65
2018-07-08T07:04:39.780Z,18.75
2018-07-08T07:07:08.916Z,18.89
2018-07-08T07:09:38.040Z,18.91
2018-07-08T07:12:07.900Z,18.86
2018-07-08T07:14:37.128Z,18.95
2018-07-08T07:17:06.291Z,18.95
2018-07-08T07:19:35.420Z,19.08
2018-07-08T07:22:04.578Z,19.02
2018-07-08T07:24:33.707Z,18.93
2018-07-08T07:27:02.843Z,18.76
2018-07-08T07:29:31.972Z,19.19
2018-07-08T07:32:01.107Z,19.32
2018-07-08T07:34:30.244Z,19.30
2018-07-08T07:36:59.430Z,19.39
2018-07-08T07:39:28.505Z,19.49
2018-07-08T07:41:57.633Z,19.43
2018-07-08T07:44:26.761Z,19.21
2018-07-08T07:46:55.876Z,19.53
2018-07-08T07:49:25.028Z,19.53
2018-07-08T07:51:54.141Z,19.52
2018-07-08T07:54:23.281Z,19.81
2018-07-08T07:56:52.404Z,19.58
2018-07-08T07:59:21.537Z,19.74
2018-07-08T08:01:50.673Z,19.93
2018-07-08T08:04:19.804Z,20.01
2018-07-08T08:06:48.948Z,19.98
2018-07-08T08:09:18.085Z,20.22
2018-07-08T08:11:47.200Z,20.39
2018-07-08T08:14:16.380Z,20.56
2018-07-08T08:16:45.506Z,20.45
2018-07-08T08:19:14.637Z,20.50
2018-07-08T08:21:43.762Z,20.35
2018-07-08T08:24:12.900Z,20.25
2018-07-08T08:26:42.084Z,20.26
2018-07-08T08:29:11.348Z,20.52
2018-07-08T08:31:40.472Z,20.48
2018-07-08T08:35:16.391Z,20.48
2018-07-08T08:37:48.947Z,20.56
2018-07-08T08:40:18.976Z,20.64
2018-07-08T08:42:48.119Z,20.83
2018-07-08T08:45:18.400Z,20.84
2018-07-08T08:47:47.525Z,21.13
2018-07-08T08:50:17.000Z,21.16
2018-07-08T08:52:45.936Z,21.11
2018-07-08T08:55:15.295Z,21.33
2018-07-08T08:57:44.432Z,21.29
2018-07-08T09:00:17.581Z,21.60
2018-07-08T09:02:46.761Z,21.70
2018-07-08T09:05:15.898Z,21.22
2018-07-08T09:07:45.031Z,21.18
2018-07-08T09:10:14.163Z,21.43
2018-07-08T09:12:43.081Z,21.42
2018-07-08T09:15:12.221Z,21.42
2018-07-08T09:17:41.366Z,21.88
2018-07-08T09:20:10.512Z,21.86
2018-07-08T09:22:39.640Z,22.19
2018-07-08T09:25:08.553Z,22.24
2018-07-08T09:27:37.694Z,22.00
2018-07-08T09:30:07.080Z,21.85
2018-07-08T09:32:36.201Z,22.10
2018-07-08T09:35:05.349Z,22.25
2018-07-08T09:37:34.471Z,22.36
2018-07-08T09:40:03.617Z,22.10
2018-07-08T09:42:32.760Z,22.13
2018-07-08T09:45:01.911Z,22.21
2018-07-08T09:47:31.069Z,22.04
2018-07-08T09:50:00.189Z,22.27
2018-07-08T09:52:29.381Z,22.38
2018-07-08T09:54:58.457Z,22.30
2018-07-08T09:57:27.584Z,22.55
2018-07-08T09:59:56.714Z,22.74
2018-07-08T10:02:25.864Z,22.65
2018-07-08T10:04:55.021Z,22.52
2018-07-08T10:07:24.145Z,22.40
2018-07-08T10:09:53.283Z,22.55
2018-07-08T10:12:22.415Z,22.39
2018-07-08T10:14:51.551Z,22.31
2018-07-08T10:17:20.685Z,22.84
2018-07-08T10:19:49.952Z,23.07
2018-07-08T10:22:18.957Z,22.88
2018-07-08T10:24:48.087Z,22.58
2018-07-08T10:27:42.601Z,22.62
2018-07-08T10:30:11.801Z,22.98
2018-07-08T10:32:40.929Z,22.92
2018-07-08T10:35:26.044Z,23.01
2018-07-08T10:37:55.167Z,23.31
2018-07-08T10:40:24.317Z,23.68
2018-07-08T10:42:53.449Z,23.58
2018-07-08T10:45:22.579Z,23.60
2018-07-08T10:47:51.496Z,24.19
2018-07-08T10:50:20.780Z,24.06
2018-07-08T10:52:49.784Z,24.00
2018-07-08T10:55:18.921Z,24.16
2018-07-08T10:57:48.036Z,23.91
2018-07-08T11:00:17.191Z,23.80
2018-07-08T11:02:46.444Z,24.08
2018-07-08T11:05:15.598Z,23.99
2018-07-08T11:07:44.706Z,24.07
2018-07-08T11:10:14.148Z,24.53
2018-07-08T11:12:43.575Z,24.58
2018-07-08T11:15:12.705Z,24.72
2018-07-08T11:17:41.935Z,25.10
2018-07-08T11:20:11.075Z,25.52
2018-07-08T11:22:40.192Z,25.44
2018-07-08T11:25:09.313Z,25.87
2018-07-08T11:27:38.432Z,26.42
2018-07-08T11:30:07.751Z,25.84
2018-07-08T11:32:37.427Z,25.84
2018-07-08T11:35:07.172Z,25.64
2018-07-08T11:37:36.300Z,25.89
2018-07-08T11:40:06.140Z,26.39
2018-07-08T11:42:35.249Z,26.10
2018-07-08T11:45:04.197Z,26.12
2018-07-08T11:47:33.325Z,25.89
2018-07-08T11:50:02.440Z,25.28
2018-07-08T11:52:31.578Z,25.49
2018-07-08T11:55:00.718Z,25.49
2018-07-08T11:57:29.889Z,26.21
2018-07-08T11:59:59.022Z,26.68
2018-07-08T12:02:27.940Z,26.25
2018-07-08T12:04:57.097Z,27.14
2018-07-08T12:07:26.245Z,26.97
2018-07-08T12:09:55.432Z,26.48
2018-07-08T12:12:24.566Z,26.52
2018-07-08T12:14:53.683Z,27.70
2018-07-08T12:17:22.822Z,27.19
2018-07-08T12:19:51.949Z,27.11
2018-07-08T12:22:21.090Z,26.37
2018-07-08T12:24:50.226Z,27.02
2018-07-08T12:27:19.364Z,27.41
2018-07-08T12:29:48.790Z,27.20
2018-07-08T12:32:17.928Z,27.37
2018-07-08T12:34:47.051Z,28.16
2018-07-08T12:37:16.209Z,27.70
2018-07-08T12:39:45.345Z,27.22
2018-07-08T12:42:14.477Z,27.23
2018-07-08T12:44:43.648Z,27.38
2018-07-08T12:47:12.717Z,28.01
2018-07-08T12:49:41.836Z,28.27
2018-07-08T12:52:11.002Z,27.18
2018-07-08T12:54:40.104Z,27.11
2018-07-08T12:57:09.348Z,28.65
2018-07-08T12:59:38.489Z,28.38
2018-07-08T13:02:07.913Z,28.44
2018-07-08T13:04:37.045Z,28.30
2018-07-08T13:07:06.712Z,27.87
2018-07-08T13:09:35.941Z,29.44
2018-07-08T13:12:04.879Z,28.83
2018-07-08T13:14:34.022Z,28.69
2018-07-08T13:17:03.076Z,28.38
2018-07-08T13:19:33.198Z,28.72
2018-07-08T13:22:03.053Z,29.68
2018-07-08T13:24:33.078Z,28.37
2018-07-08T13:27:02.225Z,28.17
2018-07-08T13:29:32.429Z,28.64
2018-07-08T13:32:08.363Z,28.28
2018-07-08T13:34:37.526Z,29.15
2018-07-08T13:37:06.856Z,30.31
2018-07-08T13:39:35.997Z,29.12
2018-07-08T13:42:05.143Z,29.91
2018-07-08T13:44:34.539Z,28.92
2018-07-08T13:47:03.663Z,29.20
2018-07-08T13:49:32.805Z,29.53
2018-07-08T13:52:01.929Z,29.85
2018-07-08T13:54:31.071Z,30.19
2018-07-08T13:57:00.194Z,30.25
2018-07-08T13:59:29.329Z,30.58
2018-07-08T14:01:58.460Z,30.48
2018-07-08T14:04:27.692Z,29.56
2018-07-08T14:06:56.820Z,30.36
2018-07-08T14:09:25.959Z,30.45
2018-07-08T14:11:55.080Z,29.29
2018-07-08T14:14:24.217Z,28.77
2018-07-08T14:16:53.498Z,30.68
2018-07-08T14:19:22.661Z,30.82
2018-07-08T14:21:52.408Z,29.60
2018-07-08T14:24:21.685Z,30.97
2018-07-08T14:26:50.971Z,30.49
2018-07-08T14:29:19.996Z,30.95
2018-07-08T14:31:49.843Z,29.55
2018-07-08T14:34:19.362Z,29.78
2018-07-08T14:36:48.885Z,29.66
2018-07-08T14:39:18.281Z,29.35
2018-07-08T14:41:47.745Z,31.70
2018-07-08T14:44:17.102Z,31.98
2018-07-08T14:46:46.408Z,29.73
2018-07-08T14:49:15.694Z,30.33
2018-07-08T14:51:45.024Z,30.47
2018-07-08T14:54:14.367Z,30.43
2018-07-08T14:56:43.625Z,30.53
2018-07-08T14:59:12.898Z,30.28
2018-07-08T15:01:42.141Z,29.15
2018-07-08T15:04:11.373Z,28.23
2018-07-08T15:06:40.779Z,30.14
2018-07-08T15:09:11.566Z,30.17
2018-07-08T15:11:40.982Z,30.80
2018-07-08T15:14:10.447Z,30.82
2018-07-08T15:16:39.580Z,29.46
2018-07-08T15:19:08.696Z,30.25
2018-07-08T15:21:37.851Z,30.65
2018-07-08T15:24:06.755Z,31.30
2018-07-08T15:26:35.879Z,30.57
2018-07-08T15:29:05.004Z,30.87
2018-07-08T15:31:34.129Z,30.11
2018-07-08T15:34:03.042Z,30.95
2018-07-08T15:36:32.167Z,30.35
2018-07-08T15:39:01.342Z,29.97
2018-07-08T15:41:30.567Z,30.52
2018-07-08T15:43:59.679Z,30.81
2018-07-08T15:46:28.810Z,30.44
2018-07-08T15:48:57.940Z,31.05
2018-07-08T15:51:27.057Z,30.93
2018-07-08T15:53:56.926Z,30.64
2018-07-08T15:56:26.073Z,30.54
2018-07-08T15:58:55.202Z,30.87
2018-07-08T16:01:24.333Z,31.37
2018-07-08T16:03:53.459Z,31.77
2018-07-08T16:06:22.576Z,31.26
2018-07-08T16:08:51.708Z,30.49
2018-07-08T16:11:20.825Z,31.04
2018-07-08T16:13:49.959Z,30.15
2018-07-08T16:16:19.087Z,30.89
2018-07-08T16:18:48.781Z,30.69
2018-07-08T16:21:17.699Z,30.94
2018-07-08T16:23:46.826Z,30.18
2018-07-08T16:26:15.943Z,31.32
2018-07-08T16:28:45.865Z,31.41
2018-07-08T16:31:14.789Z,30.60
2018-07-08T16:33:43.909Z,29.54
2018-07-08T16:36:13.044Z,29.49
2018-07-08T16:38:42.168Z,30.00
2018-07-08T16:41:11.329Z,29.78
2018-07-08T16:43:40.464Z,30.49
2018-07-08T16:46:09.604Z,31.19
2018-07-08T16:48:38.723Z,30.88
2018-07-08T16:51:07.869Z,31.05
2018-07-08T16:53:36.993Z,30.52
2018-07-08T16:56:06.190Z,30.98
2018-07-08T16:58:35.324Z,30.63
2018-07-08T17:01:04.501Z,30.66
2018-07-08T17:03:34.100Z,29.94
2018-07-08T17:06:03.313Z,30.22
2018-07-08T17:08:32.522Z,30.29
2018-07-08T17:11:01.653Z,30.84
2018-07-08T17:13:30.795Z,30.17
2018-07-08T17:15:59.923Z,30.08
2018-07-08T17:18:29.057Z,31.42
2018-07-08T17:20:58.183Z,30.81
2018-07-08T17:23:27.356Z,30.28
2018-07-08T17:25:56.419Z,30.29
2018-07-08T17:28:25.621Z,29.69
2018-07-08T17:30:54.743Z,30.74
2018-07-08T17:33:23.897Z,30.40
2018-07-08T17:35:53.002Z,31.05
2018-07-08T17:38:22.140Z,31.10
2018-07-08T17:40:51.279Z,30.43
2018-07-08T17:43:20.404Z,30.01
2018-07-08T17:45:49.537Z,29.84
2018-07-08T17:48:18.698Z,29.78
2018-07-08T17:50:47.994Z,30.10
2018-07-08T17:53:17.193Z,29.41
2018-07-08T17:55:46.350Z,30.03
2018-07-08T17:58:15.272Z,28.98
2018-07-08T18:00:44.403Z,29.17
2018-07-08T18:03:13.682Z,28.97
2018-07-08T18:05:42.715Z,29.04
2018-07-08T18:08:11.866Z,29.54
2018-07-08T18:10:40.987Z,29.52
2018-07-08T18:13:10.528Z,28.53
2018-07-08T18:15:40.226Z,26.91
2018-07-08T18:18:09.423Z,26.00
2018-07-08T18:20:38.701Z,25.76
2018-07-08T18:23:07.888Z,25.43
2018-07-08T18:25:36.978Z,25.17
2018-07-08T18:28:06.160Z,25.03
2018-07-08T18:30:36.440Z,24.98
2018-07-08T18:33:05.989Z,24.86
2018-07-08T18:35:35.130Z,24.74
2018-07-08T18:38:04.282Z,24.59
2018-07-08T18:40:33.433Z,24.54
2018-07-08T18:43:02.343Z,24.41
2018-07-08T18:45:31.493Z,24.38
2018-07-08T18:48:00.628Z,24.30
2018-07-08T18:50:29.554Z,24.19
2018-07-08T18:52:58.679Z,24.15
2018-07-08T18:55:27.830Z,24.13
2018-07-08T18:57:56.956Z,23.98
2018-07-08T19:00:26.216Z,23.90
2018-07-08T19:02:55.353Z,23.79
2018-07-08T19:05:24.504Z,23.69
2018-07-08T19:07:53.646Z,23.60
2018-07-08T19:10:22.797Z,23.58
2018-07-08T19:12:51.938Z,23.42
2018-07-08T19:15:21.081Z,23.31
2018-07-08T19:17:50.227Z,23.24
2018-07-08T19:20:19.372Z,23.16
2018-07-08T19:22:48.586Z,23.02
2018-07-08T19:25:17.743Z,22.90
2018-07-08T19:27:46.885Z,22.52
2018-07-08T19:30:16.029Z,22.41
2018-07-08T19:32:45.194Z,22.37
2018-07-08T19:35:14.351Z,22.19
2018-07-08T19:37:43.290Z,22.29
2018-07-08T19:40:12.425Z,22.23
2018-07-08T19:42:41.571Z,22.25
2018-07-08T19:45:10.701Z,22.31
2018-07-08T19:47:39.974Z,22.38
2018-07-08T19:50:09.006Z,22.31
2018-07-08T19:52:38.163Z,22.19
2018-07-08T19:55:07.385Z,21.93
2018-07-08T19:57:36.566Z,21.99
2018-07-08T20:00:06.329Z,22.13
2018-07-08T20:02:35.260Z,22.06
2018-07-08T20:05:04.394Z,21.95
2018-07-08T20:07:33.559Z,21.94
2018-07-08T20:10:02.749Z,21.91
2018-07-08T20:12:31.902Z,21.92
2018-07-08T20:15:01.835Z,21.83
2018-07-08T20:17:31.244Z,21.81
2018-07-08T20:20:00.390Z,21.78
2018-07-08T20:22:29.524Z,21.77
2018-07-08T20:24:58.546Z,21.70
2018-07-08T20:27:27.645Z,21.66
2018-07-08T20:29:57.215Z,21.54
2018-07-08T20:32:26.515Z,21.64
2018-07-08T20:34:56.653Z,21.55
2018-07-08T20:37:25.880Z,21.51
2018-07-08T20:39:55.086Z,21.42
2018-07-08T20:42:24.409Z,21.29
2018-07-08T20:44:53.583Z,21.11
2018-07-08T20:47:22.770Z,21.07
2018-07-08T20:49:52.223Z,20.99
2018-07-08T20:52:21.381Z,20.88
2018-07-08T20:54:50.519Z,20.74
2018-07-08T20:57:19.420Z,20.60
2018-07-08T20:59:48.560Z,20.62
2018-07-08T21:02:18.104Z,20.50
2018-07-08T21:04:47.008Z,20.49
2018-07-08T21:07:16.242Z,20.29
2018-07-08T21:09:45.381Z,20.21
2018-07-08T21:12:14.583Z,20.36
2018-07-08T21:14:43.913Z,20.46
2018-07-08T21:17:13.097Z,20.23
2018-07-08T21:19:42.012Z,20.23
2018-07-08T21:22:11.447Z,20.59
2018-07-08T21:24:40.644Z,20.20
2018-07-08T21:27:09.592Z,20.41
2018-07-08T21:29:38.720Z,20.23
2018-07-08T21:32:07.844Z,20.30
2018-07-08T21:34:37.080Z,20.20
2018-07-08T21:37:06.217Z,20.33
2018-07-08T21:39:35.369Z,20.23
2018-07-08T21:42:05.137Z,20.10
2018-07-08T21:44:34.267Z,20.04
2018-07-08T21:47:03.485Z,20.05
2018-07-08T21:49:32.639Z,20.17
2018-07-08T21:52:01.835Z,19.98
2018-07-08T21:54:30.950Z,20.03
2018-07-08T21:57:00.106Z,20.15
2018-07-08T21:59:29.345Z,20.11
2018-07-08T22:02:01.940Z,19.99
2018-07-08T22:04:31.197Z,20.16
2018-07-08T22:07:05.866Z,20.22
2018-07-08T22:09:35.557Z,20.09
2018-07-08T22:12:04.497Z,19.95
2018-07-08T22:14:33.715Z,19.80
2018-07-08T22:17:03.135Z,19.70
2018-07-08T22:19:32.290Z,19.52
2018-07-08T22:22:01.867Z,19.49
2018-07-08T22:24:31.257Z,19.22
2018-07-08T22:27:00.406Z,19.15
2018-07-08T22:29:29.555Z,19.06
2018-07-08T22:31:58.697Z,18.92
2018-07-08T22:34:27.836Z,18.76
2018-07-08T22:36:56.991Z,18.76
2018-07-08T22:39:26.161Z,18.91
2018-07-08T22:41:55.286Z,19.03
2018-07-08T22:44:24.411Z,19.05
2018-07-08T22:46:53.570Z,19.10
2018-07-08T22:49:22.717Z,19.01
2018-07-08T22:51:51.660Z,18.91
2018-07-08T22:54:20.800Z,18.76
2018-07-08T22:56:49.944Z,18.64
2018-07-08T22:59:19.120Z,18.68
2018-07-08T23:02:05.438Z,18.64
2018-07-08T23:04:34.571Z,18.84
2018-07-08T23:07:03.705Z,18.86
2018-07-08T23:09:33.028Z,18.85
2018-07-08T23:12:02.168Z,18.87
2018-07-08T23:14:31.322Z,18.85
2018-07-08T23:17:00.462Z,18.62
2018-07-08T23:19:29.612Z,18.47
2018-07-08T23:21:58.751Z,18.15
2018-07-08T23:24:27.909Z,18.09
2018-07-08T23:26:57.041Z,18.04
2018-07-08T23:29:26.181Z,17.96
2018-07-08T23:31:55.323Z,17.82
2018-07-08T23:34:24.484Z,17.82
2018-07-08T23:36:53.628Z,17.81
2018-07-08T23:39:22.756Z,18.04
2018-07-08T23:41:51.880Z,18.12
2018-07-08T23:44:21.021Z,18.16
2018-07-08T23:46:50.160Z,18.41
2018-07-08T23:49:19.310Z,18.30
2018-07-08T23:51:48.448Z,18.30
2018-07-08T23:54:17.604Z,18.31
2018-07-08T23:56:46.750Z,18.29
2018-07-08T23:59:15.898Z,18.36
